sensor_id;sensor_type;location;lat;lon;timestamp;P1;durP1;ratioP1;P2;durP2;ratioP2
65202;SDS011;51788;45.124;38.966;2023-07-31T00:01:49;6.57;;;5.97;;
65202;SDS011;51788;45.124;38.966;2023-07-31T00:04:14;5.90;;;5.40;;
65202;SDS011;51788;45.124;38.966;2023-07-31T00:06:40;6.80;;;6.03;;
65202;SDS011;51788;45.124;38.966;2023-07-31T00:09:06;13.07;;;6.00;;
65202;SDS011;51788;45.124;38.966;2023-07-31T00:11:32;7.93;;;5.78;;
65202;SDS011;51788;45.124;38.966;2023-07-31T00:13:58;8.20;;;5.65;;
65202;SDS011;51788;45.124;38.966;2023-07-31T00:16:24;8.65;;;5.53;;
65202;SDS011;51788;45.124;38.966;2023-07-31T00:18:50;10.95;;;5.95;;
65202;SDS011;51788;45.124;38.966;2023-07-31T00:21:16;8.68;;;5.95;;
65202;SDS011;51788;45.124;38.966;2023-07-31T00:23:42;8.75;;;6.28;;
65202;SDS011;51788;45.124;38.966;2023-07-31T00:26:08;6.13;;;5.63;;
65202;SDS011;51788;45.124;38.966;2023-07-31T00:28:34;7.13;;;6.43;;
65202;SDS011;51788;45.124;38.966;2023-07-31T00:31:00;6.47;;;5.57;;
65202;SDS011;51788;45.124;38.966;2023-07-31T00:33:27;6.95;;;6.25;;
65202;SDS011;51788;45.124;38.966;2023-07-31T00:35:53;8.20;;;6.10;;
65202;SDS011;51788;45.124;38.966;2023-07-31T00:38:19;9.98;;;5.97;;
65202;SDS011;51788;45.124;38.966;2023-07-31T00:40:46;7.68;;;6.38;;
65202;SDS011;51788;45.124;38.966;2023-07-31T00:43:12;6.57;;;5.93;;
65202;SDS011;51788;45.124;38.966;2023-07-31T00:45:39;6.57;;;5.80;;
65202;SDS011;51788;45.124;38.966;2023-07-31T00:48:05;6.32;;;5.68;;
65202;SDS011;51788;45.124;38.966;2023-07-31T00:50:33;8.82;;;5.82;;
65202;SDS011;51788;45.124;38.966;2023-07-31T00:53:00;8.52;;;5.45;;
65202;SDS011;51788;45.124;38.966;2023-07-31T00:55:26;6.60;;;6.10;;
65202;SDS011;51788;45.124;38.966;2023-07-31T00:57:52;6.70;;;6.10;;
65202;SDS011;51788;45.124;38.966;2023-07-31T01:00:21;8.60;;;5.85;;
65202;SDS011;51788;45.124;38.966;2023-07-31T01:02:47;5.38;;;4.75;;
65202;SDS011;51788;45.124;38.966;2023-07-31T01:05:14;9.35;;;6.60;;
65202;SDS011;51788;45.124;38.966;2023-07-31T01:07:52;6.43;;;5.93;;
65202;SDS011;51788;45.124;38.966;2023-07-31T01:10:33;11.43;;;6.00;;
65202;SDS011;51788;45.124;38.966;2023-07-31T01:13:03;6.82;;;5.78;;
65202;SDS011;51788;45.124;38.966;2023-07-31T01:15:29;7.10;;;5.47;;
65202;SDS011;51788;45.124;38.966;2023-07-31T01:17:55;7.43;;;5.40;;
65202;SDS011;51788;45.124;38.966;2023-07-31T01:20:22;9.23;;;5.50;;
65202;SDS011;51788;45.124;38.966;2023-07-31T01:28:25;6.47;;;3.17;;
65202;SDS011;51788;45.124;38.966;2023-07-31T01:31:06;7.35;;;5.07;;
65202;SDS011;51788;45.124;38.966;2023-07-31T01:33:33;7.18;;;5.07;;
65202;SDS011;51788;45.124;38.966;2023-07-31T01:36:02;5.82;;;5.30;;
65202;SDS011;51788;45.124;38.966;2023-07-31T01:38:28;8.75;;;4.75;;
65202;SDS011;51788;45.124;38.966;2023-07-31T01:40:54;15.02;;;4.75;;
65202;SDS011;51788;45.124;38.966;2023-07-31T01:43:20;14.43;;;4.35;;
65202;SDS011;51788;45.124;38.966;2023-07-31T01:45:46;4.72;;;4.32;;
65202;SDS011;51788;45.124;38.966;2023-07-31T01:48:12;12.35;;;4.70;;
65202;SDS011;51788;45.124;38.966;2023-07-31T01:50:38;4.75;;;4.05;;
65202;SDS011;51788;45.124;38.966;2023-07-31T01:53:04;5.57;;;4.72;;
65202;SDS011;51788;45.124;38.966;2023-07-31T01:55:30;4.32;;;4.03;;
65202;SDS011;51788;45.124;38.966;2023-07-31T01:57:55;4.63;;;4.30;;
65202;SDS011;51788;45.124;38.966;2023-07-31T02:00:21;5.40;;;5.00;;
65202;SDS011;51788;45.124;38.966;2023-07-31T02:02:47;5.60;;;5.10;;
65202;SDS011;51788;45.124;38.966;2023-07-31T02:05:13;6.03;;;5.55;;
65202;SDS011;51788;45.124;38.966;2023-07-31T02:07:39;5.82;;;5.22;;
65202;SDS011;51788;45.124;38.966;2023-07-31T02:10:05;24.17;;;6.65;;
65202;SDS011;51788;45.124;38.966;2023-07-31T02:12:31;8.38;;;5.65;;
65202;SDS011;51788;45.124;38.966;2023-07-31T02:14:58;13.15;;;5.13;;
65202;SDS011;51788;45.124;38.966;2023-07-31T02:17:24;11.68;;;5.50;;
65202;SDS011;51788;45.124;38.966;2023-07-31T02:19:50;10.68;;;5.60;;
65202;SDS011;51788;45.124;38.966;2023-07-31T02:22:16;13.93;;;5.43;;
65202;SDS011;51788;45.124;38.966;2023-07-31T02:24:43;14.27;;;6.05;;
65202;SDS011;51788;45.124;38.966;2023-07-31T02:27:09;6.85;;;5.72;;
65202;SDS011;51788;45.124;38.966;2023-07-31T02:29:35;11.15;;;5.65;;
65202;SDS011;51788;45.124;38.966;2023-07-31T02:32:01;14.52;;;5.72;;
65202;SDS011;51788;45.124;38.966;2023-07-31T02:34:27;14.43;;;6.47;;
65202;SDS011;51788;45.124;38.966;2023-07-31T02:36:53;11.45;;;6.55;;
65202;SDS011;51788;45.124;38.966;2023-07-31T02:39:18;6.18;;;5.63;;
65202;SDS011;51788;45.124;38.966;2023-07-31T02:41:46;8.43;;;5.95;;
65202;SDS011;51788;45.124;38.966;2023-07-31T02:44:12;9.93;;;6.80;;
65202;SDS011;51788;45.124;38.966;2023-07-31T02:46:39;9.38;;;6.75;;
65202;SDS011;51788;45.124;38.966;2023-07-31T02:49:05;11.35;;;6.68;;
65202;SDS011;51788;45.124;38.966;2023-07-31T02:51:31;10.50;;;6.78;;
65202;SDS011;51788;45.124;38.966;2023-07-31T02:53:57;14.20;;;6.63;;
65202;SDS011;51788;45.124;38.966;2023-07-31T02:56:23;10.30;;;6.97;;
65202;SDS011;51788;45.124;38.966;2023-07-31T02:58:49;11.35;;;7.30;;
65202;SDS011;51788;45.124;38.966;2023-07-31T03:01:15;17.92;;;7.97;;
65202;SDS011;51788;45.124;38.966;2023-07-31T03:03:41;10.80;;;7.88;;
65202;SDS011;51788;45.124;38.966;2023-07-31T03:06:07;17.95;;;7.70;;
65202;SDS011;51788;45.124;38.966;2023-07-31T03:08:33;13.40;;;7.15;;
65202;SDS011;51788;45.124;38.966;2023-07-31T03:10:59;24.98;;;8.85;;
65202;SDS011;51788;45.124;38.966;2023-07-31T03:13:26;18.08;;;7.93;;
65202;SDS011;51788;45.124;38.966;2023-07-31T03:15:52;8.27;;;7.53;;
65202;SDS011;51788;45.124;38.966;2023-07-31T03:18:18;14.07;;;7.38;;
65202;SDS011;51788;45.124;38.966;2023-07-31T03:20:44;19.30;;;7.38;;
65202;SDS011;51788;45.124;38.966;2023-07-31T03:23:10;8.88;;;7.18;;
65202;SDS011;51788;45.124;38.966;2023-07-31T03:25:36;11.13;;;6.50;;
65202;SDS011;51788;45.124;38.966;2023-07-31T03:28:03;13.90;;;7.05;;
65202;SDS011;51788;45.124;38.966;2023-07-31T03:30:29;12.57;;;7.95;;
65202;SDS011;51788;45.124;38.966;2023-07-31T03:32:55;16.85;;;7.28;;
65202;SDS011;51788;45.124;38.966;2023-07-31T03:35:21;12.30;;;7.35;;
65202;SDS011;51788;45.124;38.966;2023-07-31T03:37:47;10.02;;;7.20;;
65202;SDS011;51788;45.124;38.966;2023-07-31T03:40:13;12.15;;;7.25;;
65202;SDS011;51788;45.124;38.966;2023-07-31T03:42:39;11.10;;;6.57;;
65202;SDS011;51788;45.124;38.966;2023-07-31T03:45:05;13.93;;;7.18;;
65202;SDS011;51788;45.124;38.966;2023-07-31T03:47:32;10.13;;;6.70;;
65202;SDS011;51788;45.124;38.966;2023-07-31T03:49:58;13.52;;;6.90;;
65202;SDS011;51788;45.124;38.966;2023-07-31T03:52:24;24.33;;;7.57;;
65202;SDS011;51788;45.124;38.966;2023-07-31T03:54:50;14.60;;;6.38;;
65202;SDS011;51788;45.124;38.966;2023-07-31T03:57:16;9.48;;;6.88;;
65202;SDS011;51788;45.124;38.966;2023-07-31T03:59:42;10.77;;;7.30;;
65202;SDS011;51788;45.124;38.966;2023-07-31T04:02:08;10.40;;;6.75;;
65202;SDS011;51788;45.124;38.966;2023-07-31T04:04:34;11.70;;;7.50;;
65202;SDS011;51788;45.124;38.966;2023-07-31T04:07:00;14.85;;;6.68;;
65202;SDS011;51788;45.124;38.966;2023-07-31T04:09:26;11.20;;;6.53;;
65202;SDS011;51788;45.124;38.966;2023-07-31T04:11:51;7.07;;;6.22;;
65202;SDS011;51788;45.124;38.966;2023-07-31T04:14:18;14.32;;;6.82;;
65202;SDS011;51788;45.124;38.966;2023-07-31T04:16:43;9.77;;;6.35;;
65202;SDS011;51788;45.124;38.966;2023-07-31T04:19:09;10.40;;;6.47;;
65202;SDS011;51788;45.124;38.966;2023-07-31T04:21:36;11.25;;;6.60;;
65202;SDS011;51788;45.124;38.966;2023-07-31T04:24:02;9.73;;;7.50;;
65202;SDS011;51788;45.124;38.966;2023-07-31T04:26:28;6.70;;;6.05;;
65202;SDS011;51788;45.124;38.966;2023-07-31T04:28:53;9.43;;;6.78;;
65202;SDS011;51788;45.124;38.966;2023-07-31T04:31:19;10.05;;;6.32;;
65202;SDS011;51788;45.124;38.966;2023-07-31T04:33:45;17.80;;;6.55;;
65202;SDS011;51788;45.124;38.966;2023-07-31T04:36:11;8.05;;;5.80;;
65202;SDS011;51788;45.124;38.966;2023-07-31T04:38:37;14.95;;;6.07;;
65202;SDS011;51788;45.124;38.966;2023-07-31T04:41:03;9.15;;;6.55;;
65202;SDS011;51788;45.124;38.966;2023-07-31T04:43:30;9.90;;;6.40;;
65202;SDS011;51788;45.124;38.966;2023-07-31T04:45:56;10.40;;;5.78;;
65202;SDS011;51788;45.124;38.966;2023-07-31T04:48:23;21.88;;;6.90;;
65202;SDS011;51788;45.124;38.966;2023-07-31T04:50:49;13.20;;;6.25;;
65202;SDS011;51788;45.124;38.966;2023-07-31T04:53:15;12.18;;;6.57;;
65202;SDS011;51788;45.124;38.966;2023-07-31T04:55:41;7.32;;;5.70;;
65202;SDS011;51788;45.124;38.966;2023-07-31T04:58:07;16.70;;;6.63;;
65202;SDS011;51788;45.124;38.966;2023-07-31T05:00:33;9.65;;;6.32;;
65202;SDS011;51788;45.124;38.966;2023-07-31T05:02:59;9.65;;;6.00;;
65202;SDS011;51788;45.124;38.966;2023-07-31T05:05:25;18.27;;;6.63;;
65202;SDS011;51788;45.124;38.966;2023-07-31T05:07:51;11.32;;;5.97;;
65202;SDS011;51788;45.124;38.966;2023-07-31T05:10:18;13.35;;;6.90;;
65202;SDS011;51788;45.124;38.966;2023-07-31T05:12:44;30.05;;;6.90;;
65202;SDS011;51788;45.124;38.966;2023-07-31T05:15:16;15.30;;;6.50;;
65202;SDS011;51788;45.124;38.966;2023-07-31T05:17:41;10.23;;;6.40;;
65202;SDS011;51788;45.124;38.966;2023-07-31T05:20:07;8.60;;;6.55;;
65202;SDS011;51788;45.124;38.966;2023-07-31T05:22:34;12.85;;;6.75;;
65202;SDS011;51788;45.124;38.966;2023-07-31T05:25:00;22.75;;;7.95;;
65202;SDS011;51788;45.124;38.966;2023-07-31T05:27:26;8.82;;;6.70;;
65202;SDS011;51788;45.124;38.966;2023-07-31T05:29:52;9.27;;;6.10;;
65202;SDS011;51788;45.124;38.966;2023-07-31T05:32:18;24.00;;;6.60;;
65202;SDS011;51788;45.124;38.966;2023-07-31T05:34:44;22.95;;;6.15;;
65202;SDS011;51788;45.124;38.966;2023-07-31T05:37:10;11.88;;;6.35;;
65202;SDS011;51788;45.124;38.966;2023-07-31T05:39:37;11.40;;;6.68;;
65202;SDS011;51788;45.124;38.966;2023-07-31T05:42:03;12.20;;;6.28;;
65202;SDS011;51788;45.124;38.966;2023-07-31T05:44:29;15.32;;;6.35;;
65202;SDS011;51788;45.124;38.966;2023-07-31T05:46:55;12.18;;;6.22;;
65202;SDS011;51788;45.124;38.966;2023-07-31T05:49:21;12.07;;;6.32;;
65202;SDS011;51788;45.124;38.966;2023-07-31T05:51:47;10.60;;;6.32;;
65202;SDS011;51788;45.124;38.966;2023-07-31T05:54:13;14.25;;;6.50;;
65202;SDS011;51788;45.124;38.966;2023-07-31T05:56:39;11.45;;;5.72;;
65202;SDS011;51788;45.124;38.966;2023-07-31T05:59:05;12.05;;;5.68;;
65202;SDS011;51788;45.124;38.966;2023-07-31T06:01:31;13.93;;;6.40;;
65202;SDS011;51788;45.124;38.966;2023-07-31T06:03:57;9.80;;;5.25;;
65202;SDS011;51788;45.124;38.966;2023-07-31T06:06:23;8.40;;;6.00;;
65202;SDS011;51788;45.124;38.966;2023-07-31T06:08:49;8.43;;;5.25;;
65202;SDS011;51788;45.124;38.966;2023-07-31T06:11:15;13.93;;;5.32;;
65202;SDS011;51788;45.124;38.966;2023-07-31T06:13:41;13.75;;;5.80;;
65202;SDS011;51788;45.124;38.966;2023-07-31T06:16:07;5.88;;;5.28;;
65202;SDS011;51788;45.124;38.966;2023-07-31T06:18:33;15.75;;;5.05;;
65202;SDS011;51788;45.124;38.966;2023-07-31T06:20:59;10.77;;;5.68;;
65202;SDS011;51788;45.124;38.966;2023-07-31T06:23:25;8.75;;;4.70;;
65202;SDS011;51788;45.124;38.966;2023-07-31T06:25:51;8.43;;;5.00;;
65202;SDS011;51788;45.124;38.966;2023-07-31T06:28:17;9.20;;;4.43;;
65202;SDS011;51788;45.124;38.966;2023-07-31T06:30:43;7.63;;;4.43;;
65202;SDS011;51788;45.124;38.966;2023-07-31T06:33:09;13.05;;;5.47;;
65202;SDS011;51788;45.124;38.966;2023-07-31T06:35:34;9.70;;;4.80;;
65202;SDS011;51788;45.124;38.966;2023-07-31T06:38:01;5.72;;;4.30;;
65202;SDS011;51788;45.124;38.966;2023-07-31T06:40:28;5.40;;;3.80;;
65202;SDS011;51788;45.124;38.966;2023-07-31T06:42:54;5.38;;;4.32;;
65202;SDS011;51788;45.124;38.966;2023-07-31T06:45:20;8.23;;;4.20;;
65202;SDS011;51788;45.124;38.966;2023-07-31T06:47:47;7.22;;;4.60;;
65202;SDS011;51788;45.124;38.966;2023-07-31T06:50:13;24.60;;;4.10;;
65202;SDS011;51788;45.124;38.966;2023-07-31T06:52:39;8.88;;;4.22;;
65202;SDS011;51788;45.124;38.966;2023-07-31T06:55:19;78.43;;;6.30;;
65202;SDS011;51788;45.124;38.966;2023-07-31T06:57:46;5.38;;;3.85;;
65202;SDS011;51788;45.124;38.966;2023-07-31T07:00:13;8.38;;;4.07;;
65202;SDS011;51788;45.124;38.966;2023-07-31T07:02:39;8.18;;;4.45;;
65202;SDS011;51788;45.124;38.966;2023-07-31T07:05:06;11.57;;;6.18;;
65202;SDS011;51788;45.124;38.966;2023-07-31T07:07:32;10.07;;;4.22;;
65202;SDS011;51788;45.124;38.966;2023-07-31T07:09:58;12.68;;;5.00;;
65202;SDS011;51788;45.124;38.966;2023-07-31T07:12:29;12.05;;;4.18;;
65202;SDS011;51788;45.124;38.966;2023-07-31T07:14:56;9.00;;;3.85;;
65202;SDS011;51788;45.124;38.966;2023-07-31T07:17:23;7.25;;;3.70;;
65202;SDS011;51788;45.124;38.966;2023-07-31T07:19:49;18.13;;;11.55;;
65202;SDS011;51788;45.124;38.966;2023-07-31T07:22:15;8.45;;;4.43;;
65202;SDS011;51788;45.124;38.966;2023-07-31T07:24:41;4.57;;;4.10;;
65202;SDS011;51788;45.124;38.966;2023-07-31T07:27:07;7.25;;;3.53;;
65202;SDS011;51788;45.124;38.966;2023-07-31T07:29:34;20.10;;;4.03;;
65202;SDS011;51788;45.124;38.966;2023-07-31T07:32:00;7.00;;;4.15;;
65202;SDS011;51788;45.124;38.966;2023-07-31T07:34:27;9.85;;;4.00;;
65202;SDS011;51788;45.124;38.966;2023-07-31T07:36:54;3.70;;;3.28;;
65202;SDS011;51788;45.124;38.966;2023-07-31T07:39:20;12.23;;;3.72;;
65202;SDS011;51788;45.124;38.966;2023-07-31T07:41:46;5.45;;;3.45;;
65202;SDS011;51788;45.124;38.966;2023-07-31T07:44:13;6.35;;;3.67;;
65202;SDS011;51788;45.124;38.966;2023-07-31T07:46:40;18.88;;;3.70;;
65202;SDS011;51788;45.124;38.966;2023-07-31T07:49:06;5.10;;;3.97;;
65202;SDS011;51788;45.124;38.966;2023-07-31T07:51:32;8.00;;;3.22;;
65202;SDS011;51788;45.124;38.966;2023-07-31T07:53:58;8.23;;;4.05;;
65202;SDS011;51788;45.124;38.966;2023-07-31T07:56:27;9.43;;;4.22;;
65202;SDS011;51788;45.124;38.966;2023-07-31T07:58:53;5.22;;;2.92;;
65202;SDS011;51788;45.124;38.966;2023-07-31T08:01:19;12.75;;;3.80;;
65202;SDS011;51788;45.124;38.966;2023-07-31T08:03:46;5.85;;;3.70;;
65202;SDS011;51788;45.124;38.966;2023-07-31T08:06:12;9.05;;;3.67;;
65202;SDS011;51788;45.124;38.966;2023-07-31T08:08:39;6.45;;;3.85;;
65202;SDS011;51788;45.124;38.966;2023-07-31T08:11:05;15.57;;;4.03;;
65202;SDS011;51788;45.124;38.966;2023-07-31T08:13:31;8.60;;;3.47;;
65202;SDS011;51788;45.124;38.966;2023-07-31T08:15:57;3.53;;;3.22;;
65202;SDS011;51788;45.124;38.966;2023-07-31T08:18:23;8.07;;;3.08;;
65202;SDS011;51788;45.124;38.966;2023-07-31T08:20:49;13.00;;;3.22;;
65202;SDS011;51788;45.124;38.966;2023-07-31T08:23:15;8.43;;;3.08;;
65202;SDS011;51788;45.124;38.966;2023-07-31T08:25:41;10.20;;;3.50;;
65202;SDS011;51788;45.124;38.966;2023-07-31T08:28:07;6.43;;;3.38;;
65202;SDS011;51788;45.124;38.966;2023-07-31T08:30:33;3.42;;;3.10;;
65202;SDS011;51788;45.124;38.966;2023-07-31T08:32:59;8.48;;;3.28;;
65202;SDS011;51788;45.124;38.966;2023-07-31T08:35:26;3.70;;;3.22;;
65202;SDS011;51788;45.124;38.966;2023-07-31T08:37:55;5.57;;;3.00;;
65202;SDS011;51788;45.124;38.966;2023-07-31T08:40:21;3.47;;;3.10;;
65202;SDS011;51788;45.124;38.966;2023-07-31T08:42:48;7.40;;;3.83;;
65202;SDS011;51788;45.124;38.966;2023-07-31T08:45:16;3.78;;;3.10;;
65202;SDS011;51788;45.124;38.966;2023-07-31T08:47:47;5.32;;;2.85;;
65202;SDS011;51788;45.124;38.966;2023-07-31T08:50:15;3.17;;;2.95;;
65202;SDS011;51788;45.124;38.966;2023-07-31T08:52:43;18.30;;;3.75;;
65202;SDS011;51788;45.124;38.966;2023-07-31T08:55:09;3.47;;;3.17;;
65202;SDS011;51788;45.124;38.966;2023-07-31T08:57:36;4.20;;;3.33;;
65202;SDS011;51788;45.124;38.966;2023-07-31T09:00:07;12.35;;;2.83;;
65202;SDS011;51788;45.124;38.966;2023-07-31T09:02:35;6.67;;;2.83;;
65202;SDS011;51788;45.124;38.966;2023-07-31T09:05:12;5.15;;;2.80;;
65202;SDS011;51788;45.124;38.966;2023-07-31T09:07:38;4.53;;;2.80;;
65202;SDS011;51788;45.124;38.966;2023-07-31T09:10:06;8.57;;;3.50;;
65202;SDS011;51788;45.124;38.966;2023-07-31T09:12:32;6.28;;;2.70;;
65202;SDS011;51788;45.124;38.966;2023-07-31T09:14:58;15.05;;;2.80;;
65202;SDS011;51788;45.124;38.966;2023-07-31T09:17:29;9.32;;;3.03;;
65202;SDS011;51788;45.124;38.966;2023-07-31T09:20:20;4.93;;;2.83;;
65202;SDS011;51788;45.124;38.966;2023-07-31T09:22:46;2.92;;;2.50;;
65202;SDS011;51788;45.124;38.966;2023-07-31T09:27:51;6.53;;;2.42;;
65202;SDS011;51788;45.124;38.966;2023-07-31T09:30:19;11.38;;;3.20;;
65202;SDS011;51788;45.124;38.966;2023-07-31T09:32:45;22.52;;;3.00;;
65202;SDS011;51788;45.124;38.966;2023-07-31T09:37:47;16.83;;;7.05;;
65202;SDS011;51788;45.124;38.966;2023-07-31T09:40:27;6.63;;;2.55;;
65202;SDS011;51788;45.124;38.966;2023-07-31T09:43:06;7.22;;;2.42;;
65202;SDS011;51788;45.124;38.966;2023-07-31T09:45:34;11.57;;;2.83;;
65202;SDS011;51788;45.124;38.966;2023-07-31T09:48:08;5.17;;;3.00;;
65202;SDS011;51788;45.124;38.966;2023-07-31T09:50:41;10.02;;;2.85;;
65202;SDS011;51788;45.124;38.966;2023-07-31T09:53:08;2.85;;;2.53;;
65202;SDS011;51788;45.124;38.966;2023-07-31T09:55:35;8.75;;;2.63;;
65202;SDS011;51788;45.124;38.966;2023-07-31T09:58:09;9.18;;;3.05;;
65202;SDS011;51788;45.124;38.966;2023-07-31T10:00:36;3.95;;;2.50;;
65202;SDS011;51788;45.124;38.966;2023-07-31T10:03:09;2.85;;;2.40;;
65202;SDS011;51788;45.124;38.966;2023-07-31T10:05:43;2.72;;;2.30;;
65202;SDS011;51788;45.124;38.966;2023-07-31T10:08:14;8.07;;;3.03;;
65202;SDS011;51788;45.124;38.966;2023-07-31T10:10:41;4.15;;;2.58;;
65202;SDS011;51788;45.124;38.966;2023-07-31T10:13:09;3.35;;;2.50;;
65202;SDS011;51788;45.124;38.966;2023-07-31T10:15:35;4.03;;;2.70;;
65202;SDS011;51788;45.124;38.966;2023-07-31T10:18:02;4.75;;;2.47;;
65202;SDS011;51788;45.124;38.966;2023-07-31T10:20:31;7.25;;;2.90;;
65202;SDS011;51788;45.124;38.966;2023-07-31T10:22:57;4.05;;;2.63;;
65202;SDS011;51788;45.124;38.966;2023-07-31T10:25:25;3.55;;;2.80;;
65202;SDS011;51788;45.124;38.966;2023-07-31T10:27:52;5.10;;;2.25;;
65202;SDS011;51788;45.124;38.966;2023-07-31T10:30:19;3.33;;;2.67;;
65202;SDS011;51788;45.124;38.966;2023-07-31T10:32:47;5.50;;;2.35;;
65202;SDS011;51788;45.124;38.966;2023-07-31T10:35:16;5.90;;;3.38;;
65202;SDS011;51788;45.124;38.966;2023-07-31T10:37:43;3.30;;;2.80;;
65202;SDS011;51788;45.124;38.966;2023-07-31T10:40:10;11.55;;;2.47;;
65202;SDS011;51788;45.124;38.966;2023-07-31T10:45:23;4.03;;;2.63;;
65202;SDS011;51788;45.124;38.966;2023-07-31T10:47:58;2.70;;;2.38;;
65202;SDS011;51788;45.124;38.966;2023-07-31T10:50:56;15.98;;;3.13;;
65202;SDS011;51788;45.124;38.966;2023-07-31T10:53:25;4.50;;;2.70;;
65202;SDS011;51788;45.124;38.966;2023-07-31T10:55:57;2.13;;;2.03;;
65202;SDS011;51788;45.124;38.966;2023-07-31T10:58:24;2.67;;;2.47;;
65202;SDS011;51788;45.124;38.966;2023-07-31T11:00:56;7.75;;;2.78;;
65202;SDS011;51788;45.124;38.966;2023-07-31T11:03:40;8.73;;;2.78;;
65202;SDS011;51788;45.124;38.966;2023-07-31T11:06:12;3.63;;;2.33;;
65202;SDS011;51788;45.124;38.966;2023-07-31T11:08:45;7.30;;;2.50;;
65202;SDS011;51788;45.124;38.966;2023-07-31T11:11:13;3.72;;;2.50;;
65202;SDS011;51788;45.124;38.966;2023-07-31T11:13:50;16.98;;;2.53;;
65202;SDS011;51788;45.124;38.966;2023-07-31T11:16:18;3.72;;;3.00;;
65202;SDS011;51788;45.124;38.966;2023-07-31T11:18:46;12.20;;;3.20;;
65202;SDS011;51788;45.124;38.966;2023-07-31T11:21:14;2.60;;;2.40;;
65202;SDS011;51788;45.124;38.966;2023-07-31T11:23:45;3.20;;;2.67;;
65202;SDS011;51788;45.124;38.966;2023-07-31T11:26:12;5.85;;;2.85;;
65202;SDS011;51788;45.124;38.966;2023-07-31T11:28:38;5.05;;;2.58;;
65202;SDS011;51788;45.124;38.966;2023-07-31T11:31:09;5.65;;;2.40;;
65202;SDS011;51788;45.124;38.966;2023-07-31T11:33:36;2.50;;;2.30;;
65202;SDS011;51788;45.124;38.966;2023-07-31T11:36:02;5.63;;;2.38;;
65202;SDS011;51788;45.124;38.966;2023-07-31T11:38:29;9.35;;;2.80;;
65202;SDS011;51788;45.124;38.966;2023-07-31T11:40:57;2.70;;;2.50;;
65202;SDS011;51788;45.124;38.966;2023-07-31T11:43:28;6.85;;;2.95;;
65202;SDS011;51788;45.124;38.966;2023-07-31T11:45:55;2.47;;;2.28;;
65202;SDS011;51788;45.124;38.966;2023-07-31T11:48:26;7.25;;;2.72;;
65202;SDS011;51788;45.124;38.966;2023-07-31T11:51:00;6.10;;;2.70;;
65202;SDS011;51788;45.124;38.966;2023-07-31T11:55:57;7.30;;;2.72;;
65202;SDS011;51788;45.124;38.966;2023-07-31T11:58:24;2.92;;;2.63;;
65202;SDS011;51788;45.124;38.966;2023-07-31T12:00:51;10.57;;;4.80;;
65202;SDS011;51788;45.124;38.966;2023-07-31T12:03:18;6.78;;;2.65;;
65202;SDS011;51788;45.124;38.966;2023-07-31T12:05:46;17.75;;;2.70;;
65202;SDS011;51788;45.124;38.966;2023-07-31T12:08:13;4.90;;;2.30;;
65202;SDS011;51788;45.124;38.966;2023-07-31T12:10:39;6.32;;;2.83;;
65202;SDS011;51788;45.124;38.966;2023-07-31T12:13:07;10.23;;;2.47;;
65202;SDS011;51788;45.124;38.966;2023-07-31T12:28:24;6.80;;;2.60;;
65202;SDS011;51788;45.124;38.966;2023-07-31T12:30:50;4.75;;;2.58;;
65202;SDS011;51788;45.124;38.966;2023-07-31T12:33:16;3.85;;;2.60;;
65202;SDS011;51788;45.124;38.966;2023-07-31T12:35:45;5.07;;;2.58;;
65202;SDS011;51788;45.124;38.966;2023-07-31T12:38:15;4.90;;;2.95;;
65202;SDS011;51788;45.124;38.966;2023-07-31T12:40:41;2.97;;;2.42;;
65202;SDS011;51788;45.124;38.966;2023-07-31T12:43:07;12.23;;;2.72;;
65202;SDS011;51788;45.124;38.966;2023-07-31T12:45:34;5.18;;;2.75;;
65202;SDS011;51788;45.124;38.966;2023-07-31T12:48:00;8.43;;;2.45;;
65202;SDS011;51788;45.124;38.966;2023-07-31T12:50:27;10.95;;;3.10;;
65202;SDS011;51788;45.124;38.966;2023-07-31T12:52:53;9.40;;;2.75;;
65202;SDS011;51788;45.124;38.966;2023-07-31T12:55:21;6.82;;;2.20;;
65202;SDS011;51788;45.124;38.966;2023-07-31T12:57:47;9.13;;;2.78;;
65202;SDS011;51788;45.124;38.966;2023-07-31T13:00:13;4.90;;;2.78;;
65202;SDS011;51788;45.124;38.966;2023-07-31T13:02:39;2.40;;;2.20;;
65202;SDS011;51788;45.124;38.966;2023-07-31T13:05:06;6.93;;;2.75;;
65202;SDS011;51788;45.124;38.966;2023-07-31T13:07:32;12.85;;;2.75;;
65202;SDS011;51788;45.124;38.966;2023-07-31T13:09:58;7.35;;;2.83;;
65202;SDS011;51788;45.124;38.966;2023-07-31T13:12:24;4.15;;;2.60;;
65202;SDS011;51788;45.124;38.966;2023-07-31T13:14:50;4.00;;;2.45;;
65202;SDS011;51788;45.124;38.966;2023-07-31T13:17:17;2.38;;;2.10;;
65202;SDS011;51788;45.124;38.966;2023-07-31T13:19:45;6.85;;;2.38;;
65202;SDS011;51788;45.124;38.966;2023-07-31T13:22:11;5.47;;;2.40;;
65202;SDS011;51788;45.124;38.966;2023-07-31T13:24:37;8.57;;;3.35;;
65202;SDS011;51788;45.124;38.966;2023-07-31T13:27:03;6.72;;;2.75;;
65202;SDS011;51788;45.124;38.966;2023-07-31T13:29:29;3.63;;;2.55;;
65202;SDS011;51788;45.124;38.966;2023-07-31T13:31:55;6.93;;;2.65;;
65202;SDS011;51788;45.124;38.966;2023-07-31T13:34:21;8.18;;;2.88;;
65202;SDS011;51788;45.124;38.966;2023-07-31T13:36:47;5.10;;;2.35;;
65202;SDS011;51788;45.124;38.966;2023-07-31T13:39:13;11.00;;;2.97;;
65202;SDS011;51788;45.124;38.966;2023-07-31T13:41:39;10.88;;;2.42;;
65202;SDS011;51788;45.124;38.966;2023-07-31T13:44:05;7.93;;;3.03;;
65202;SDS011;51788;45.124;38.966;2023-07-31T13:46:31;10.73;;;2.78;;
65202;SDS011;51788;45.124;38.966;2023-07-31T13:48:58;11.13;;;3.00;;
65202;SDS011;51788;45.124;38.966;2023-07-31T13:51:25;8.48;;;2.65;;
65202;SDS011;51788;45.124;38.966;2023-07-31T13:53:52;7.72;;;2.85;;
65202;SDS011;51788;45.124;38.966;2023-07-31T13:56:18;5.25;;;2.72;;
65202;SDS011;51788;45.124;38.966;2023-07-31T13:58:44;7.30;;;2.80;;
65202;SDS011;51788;45.124;38.966;2023-07-31T14:01:10;18.38;;;3.63;;
65202;SDS011;51788;45.124;38.966;2023-07-31T14:03:36;5.25;;;3.47;;
65202;SDS011;51788;45.124;38.966;2023-07-31T14:06:02;3.70;;;2.15;;
65202;SDS011;51788;45.124;38.966;2023-07-31T14:08:29;9.77;;;3.03;;
65202;SDS011;51788;45.124;38.966;2023-07-31T14:10:55;3.97;;;2.78;;
65202;SDS011;51788;45.124;38.966;2023-07-31T14:13:21;4.28;;;2.58;;
65202;SDS011;51788;45.124;38.966;2023-07-31T14:15:47;5.65;;;3.28;;
65202;SDS011;51788;45.124;38.966;2023-07-31T14:18:13;5.57;;;2.67;;
65202;SDS011;51788;45.124;38.966;2023-07-31T14:20:39;25.23;;;4.07;;
65202;SDS011;51788;45.124;38.966;2023-07-31T14:23:05;3.67;;;2.60;;
65202;SDS011;51788;45.124;38.966;2023-07-31T14:25:31;9.15;;;2.97;;
65202;SDS011;51788;45.124;38.966;2023-07-31T14:27:57;22.77;;;3.80;;
65202;SDS011;51788;45.124;38.966;2023-07-31T14:30:23;10.20;;;3.22;;
65202;SDS011;51788;45.124;38.966;2023-07-31T14:32:49;15.30;;;3.28;;
65202;SDS011;51788;45.124;38.966;2023-07-31T14:35:15;2.65;;;2.33;;
65202;SDS011;51788;45.124;38.966;2023-07-31T14:37:41;9.85;;;2.70;;
65202;SDS011;51788;45.124;38.966;2023-07-31T14:40:10;7.55;;;3.10;;
65202;SDS011;51788;45.124;38.966;2023-07-31T14:42:37;26.13;;;2.55;;
65202;SDS011;51788;45.124;38.966;2023-07-31T14:45:04;12.45;;;4.85;;
65202;SDS011;51788;45.124;38.966;2023-07-31T14:47:31;16.00;;;3.22;;
65202;SDS011;51788;45.124;38.966;2023-07-31T14:49:57;4.38;;;2.90;;
65202;SDS011;51788;45.124;38.966;2023-07-31T14:52:24;6.25;;;1.95;;
65202;SDS011;51788;45.124;38.966;2023-07-31T14:54:50;9.93;;;2.78;;
65202;SDS011;51788;45.124;38.966;2023-07-31T14:57:17;9.27;;;3.08;;
65202;SDS011;51788;45.124;38.966;2023-07-31T14:59:43;10.23;;;3.42;;